Time;durP1;ratioP1;P1;durP2;ratioP2;P2;SDS_P1;SDS_P2;PMS_P1;PMS_P2;Temp;Humidity;BMP_temperature;BMP_pressure;BME280_temperature;BME280_humidity;BME280_pressure;Samples;Min_cycle;Max_cycle;Signal;HPM_P1;HPM_P2
2022/01/26 00:06:09;;;;;;;61.28;23.67;;;2.80;99.90;;;;;;5036246;28;20054;-74
2022/01/26 00:08:36;;;;;;;62.70;22.83;;;2.70;99.90;;;;;;5034795;28;20492;-74
2022/01/26 00:11:02;;;;;;;68.63;21.48;;;3.20;99.90;;;;;;5035623;28;20053;-74
2022/01/26 00:13:28;;;;;;;57.35;24.00;;;2.70;99.90;;;;;;5035957;28;20057;-75
2022/01/26 00:15:55;;;;;;;65.88;23.55;;;2.70;99.90;;;;;;5035356;28;20049;-76
2022/01/26 00:18:22;;;;;;;67.43;22.83;;;2.80;99.90;;;;;;5035684;28;20045;-75
2022/01/26 00:20:56;;;;;;;67.20;22.67;;;3.10;99.90;;;;;;5035300;28;20092;-75
2022/01/26 00:39:13;;;;;;;70.72;25.70;;;2.70;99.90;;;;;;5034825;28;20046;-75
2022/01/26 00:41:40;;;;;;;65.85;24.15;;;2.90;99.90;;;;;;5034461;28;20053;-75
2022/01/26 00:44:07;;;;;;;72.65;25.13;;;2.80;99.90;;;;;;5033362;28;20061;-76
2022/01/26 00:46:34;;;;;;;67.38;23.88;;;2.60;99.90;;;;;;5034798;28;20053;-75
2022/01/26 00:49:00;;;;;;;73.22;24.40;;;2.50;99.90;;;;;;5034625;28;20045;-75
2022/01/26 00:51:26;;;;;;;67.32;22.83;;;2.50;99.90;;;;;;5035178;28;20052;-75
2022/01/26 00:54:00;;;;;;;66.15;24.48;;;2.60;99.90;;;;;;5033678;28;20154;-76
2022/01/26 00:56:26;;;;;;;60.03;22.88;;;2.70;99.90;;;;;;5034867;28;20425;-75
2022/01/26 00:58:52;;;;;;;79.25;25.92;;;2.80;99.90;;;;;;5034350;28;20041;-75
2022/01/26 01:01:17;;;;;;;67.60;21.52;;;2.40;99.90;;;;;;5034413;28;20077;-76
2022/01/26 01:03:45;;;;;;;67.95;23.35;;;2.40;99.90;;;;;;5033406;28;20131;-75
2022/01/26 01:06:25;;;;;;;69.45;24.67;;;2.40;99.90;;;;;;5034333;28;20053;-75
2022/01/26 01:08:52;;;;;;;64.70;24.35;;;2.40;99.90;;;;;;5033843;28;20096;-76
2022/01/26 01:11:18;;;;;;;70.97;23.60;;;2.40;99.90;;;;;;5033176;28;20050;-76
2022/01/26 01:13:45;;;;;;;73.50;25.65;;;2.50;99.90;;;;;;5034223;28;20051;-75
2022/01/26 01:16:16;;;;;;;72.63;24.40;;;2.70;99.90;;;;;;5033026;28;20081;-75
2022/01/26 01:19:08;;;;;;;68.07;24.05;;;2.30;99.90;;;;;;5034595;28;20037;-76
2022/01/26 01:34:13;;;;;;;66.13;23.40;;;2.70;99.90;;;;;;5033619;28;20599;-75
2022/01/26 01:36:41;;;;;;;63.28;20.88;;;2.40;99.90;;;;;;5033925;28;20093;-76
2022/01/26 01:39:08;;;;;;;65.93;22.13;;;2.30;99.90;;;;;;5033741;28;20092;-76
2022/01/26 01:41:38;;;;;;;69.35;23.65;;;2.40;99.90;;;;;;5033688;28;20049;-75
2022/01/26 01:44:05;;;;;;;69.40;24.70;;;2.30;99.90;;;;;;5034184;28;20482;-76
2022/01/26 01:46:32;;;;;;;72.57;26.90;;;2.20;99.90;;;;;;5033721;28;20115;-76
2022/01/26 01:48:58;;;;;;;70.43;25.10;;;2.70;99.90;;;;;;5033948;28;20477;-76
2022/01/26 01:51:30;;;;;;;69.07;23.42;;;3.30;99.90;;;;;;5033633;28;20409;-76
2022/01/26 01:53:56;;;;;;;60.78;20.27;;;3.20;99.90;;;;;;5032637;28;20045;-76
2022/01/26 01:56:24;;;;;;;64.93;21.80;;;2.30;99.90;;;;;;5034077;28;20096;-75
2022/01/26 01:58:50;;;;;;;61.60;22.98;;;2.20;99.90;;;;;;5033506;28;20053;-76
2022/01/26 02:01:16;;;;;;;72.07;24.40;;;2.40;99.90;;;;;;5033786;28;20048;-76
2022/01/26 02:03:42;;;;;;;75.35;24.65;;;2.70;99.90;;;;;;5033769;28;20054;-76
2022/01/26 02:06:07;;;;;;;69.63;25.85;;;2.90;99.90;;;;;;5033487;28;20045;-76
2022/01/26 02:08:34;;;;;;;71.43;23.65;;;2.20;99.90;;;;;;5033962;28;20045;-76
2022/01/26 02:10:59;;;;;;;67.15;22.10;;;2.20;99.90;;;;;;5032148;28;20128;-75
2022/01/26 02:13:30;;;;;;;73.05;24.00;;;2.20;99.90;;;;;;5034210;28;20147;-75
2022/01/26 02:21:25;;;;;;;70.95;24.38;;;2.30;99.90;;;;;;5033646;28;20424;-74
2022/01/26 02:54:03;;;;;;;68.60;24.00;;;2.10;99.90;;;;;;5036901;28;20050;-75
2022/01/26 03:04:17;;;;;;;72.18;22.38;;;2.10;99.90;;;;;;5037249;28;20050;-75
2022/01/26 03:09:19;;;;;;;72.60;24.77;;;2.70;99.90;;;;;;5037209;28;20152;-76
2022/01/26 03:11:47;;;;;;;74.55;25.10;;;2.60;99.90;;;;;;5036603;28;20060;-75
2022/01/26 03:15:07;;;;;;;77.90;26.00;;;2.00;99.90;;;;;;5018923;28;20057;-76
2022/01/26 03:17:07;;;;;;;70.80;24.07;;;2.00;99.90;;;;;;5014898;28;20061;-76
2022/01/26 03:20:11;;;;;;;75.22;26.60;;;3.30;99.90;;;;;;5036362;28;20131;-75
2022/01/26 03:35:58;;;;;;;69.70;24.13;;;2.60;99.90;;;;;;5036137;28;20049;-75
2022/01/26 03:38:48;;;;;;;72.35;23.75;;;2.10;99.90;;;;;;5034962;28;20046;-74
2022/01/26 03:43:35;;;;;;;74.22;24.45;;;1.90;99.90;;;;;;5035923;28;20144;-74
2022/01/26 03:46:01;;;;;;;74.97;24.52;;;1.90;99.90;;;;;;5036387;28;20461;-75
2022/01/26 03:48:27;;;;;;;70.65;24.42;;;1.90;99.90;;;;;;5035795;28;20128;-75
2022/01/26 03:50:53;;;;;;;73.78;25.23;;;2.50;99.90;;;;;;5035746;28;20417;-74
2022/01/26 03:53:18;;;;;;;74.55;26.02;;;2.00;99.90;;;;;;5035899;28;20053;-75
2022/01/26 03:55:44;;;;;;;71.05;20.50;;;2.10;99.90;;;;;;5035793;28;20041;-74
2022/01/26 03:58:10;;;;;;;75.35;24.20;;;1.90;99.90;;;;;;5035592;28;20231;-74
2022/01/26 04:00:36;;;;;;;74.78;25.23;;;1.80;99.90;;;;;;5034669;28;20052;-74
2022/01/26 04:03:02;;;;;;;66.72;22.15;;;1.90;99.90;;;;;;5035556;28;20377;-74
2022/01/26 04:05:28;;;;;;;69.43;21.90;;;1.80;99.90;;;;;;5036019;28;20053;-74
2022/01/26 04:07:59;;;;;;;72.53;23.35;;;1.80;99.90;;;;;;5035507;28;20053;-74
2022/01/26 04:11:29;;;;;;;68.75;23.58;;;1.90;99.90;;;;;;5035661;28;20512;-74
2022/01/26 04:13:11;;;;;;;63.47;21.50;;;2.90;99.90;;;;;;5018431;28;20103;-74
2022/01/26 04:15:38;;;;;;;64.35;22.13;;;2.50;99.90;;;;;;5017953;28;20441;-75
2022/01/26 04:18:07;;;;;;;68.80;21.90;;;1.90;99.90;;;;;;5034009;28;20053;-74
2022/01/26 04:20:38;;;;;;;71.95;22.88;;;2.60;99.90;;;;;;5035328;28;20088;-74
2022/01/26 04:23:11;;;;;;;71.93;23.60;;;1.70;99.90;;;;;;5035228;28;20052;-73
2022/01/26 04:25:39;;;;;;;69.22;22.85;;;2.10;99.90;;;;;;5035209;28;20041;-74
2022/01/26 04:28:09;;;;;;;68.07;23.25;;;2.90;99.90;;;;;;5034146;28;20049;-74
2022/01/26 04:30:35;;;;;;;63.25;22.25;;;1.70;99.90;;;;;;5034015;28;20053;-74
2022/01/26 04:33:04;;;;;;;77.20;25.83;;;1.70;99.90;;;;;;5034912;28;20046;-75
2022/01/26 04:35:31;;;;;;;72.70;25.42;;;2.00;99.90;;;;;;5034909;28;20133;-74
2022/01/26 04:40:36;;;;;;;72.78;25.77;;;1.70;99.90;;;;;;5035314;28;20055;-76
2022/01/26 04:43:06;;;;;;;66.93;23.83;;;1.70;99.90;;;;;;5034298;28;20056;-74
2022/01/26 04:45:32;;;;;;;69.93;22.02;;;2.10;99.90;;;;;;5035440;28;20050;-74
2022/01/26 04:47:58;;;;;;;63.10;21.40;;;1.70;99.90;;;;;;5033792;28;20103;-75
2022/01/26 04:50:23;;;;;;;75.13;21.45;;;1.60;99.90;;;;;;5033976;28;20056;-74
2022/01/26 04:52:49;;;;;;;67.38;21.02;;;2.50;99.90;;;;;;5016950;28;20052;-74
2022/01/26 04:55:15;;;;;;;68.53;21.77;;;2.40;99.90;;;;;;5034076;28;20045;-74
2022/01/26 04:57:41;;;;;;;68.25;21.60;;;2.40;99.90;;;;;;5035067;28;20432;-74
2022/01/26 05:00:08;;;;;;;59.83;20.88;;;1.60;99.90;;;;;;5034493;28;20049;-74
2022/01/26 05:02:34;;;;;;;70.28;22.65;;;1.60;99.90;;;;;;5034180;28;20042;-74
2022/01/26 05:05:00;;;;;;;65.80;22.77;;;1.60;99.90;;;;;;5034390;28;20129;-75
2022/01/26 05:07:26;;;;;;;63.13;24.02;;;2.00;99.90;;;;;;5033943;28;20121;-75
2022/01/26 05:09:51;;;;;;;65.43;21.30;;;1.60;99.90;;;;;;5033138;28;20053;-74
2022/01/26 05:12:18;;;;;;;63.38;22.02;;;1.80;99.90;;;;;;5034217;28;20573;-75
2022/01/26 05:14:46;;;;;;;62.78;20.58;;;2.20;99.90;;;;;;5034102;28;20045;-75
2022/01/26 05:17:13;;;;;;;58.03;19.92;;;1.60;99.90;;;;;;5032962;28;20056;-75
2022/01/26 05:19:39;;;;;;;62.95;19.58;;;2.50;99.90;;;;;;5034526;28;20389;-74
2022/01/26 05:22:05;;;;;;;62.65;22.08;;;1.90;99.90;;;;;;5034043;28;20049;-75
2022/01/26 05:24:31;;;;;;;61.25;19.17;;;1.60;99.90;;;;;;5034008;28;20045;-75
2022/01/26 05:26:56;;;;;;;53.50;18.15;;;2.60;99.90;;;;;;5033024;28;20120;-75
2022/01/26 05:29:22;;;;;;;66.95;23.00;;;1.60;99.90;;;;;;5033932;28;20037;-74
2022/01/26 05:31:48;;;;;;;61.08;20.38;;;1.60;99.90;;;;;;5034483;28;20132;-74
2022/01/26 05:34:14;;;;;;;58.83;19.38;;;1.60;99.90;;;;;;5033758;28;20385;-75
2022/01/26 05:36:40;;;;;;;60.20;17.92;;;1.60;99.90;;;;;;5032669;28;20045;-75
2022/01/26 05:39:05;;;;;;;55.70;18.90;;;2.40;99.90;;;;;;5033642;28;20041;-75
2022/01/26 05:41:31;;;;;;;58.80;22.48;;;1.60;99.90;;;;;;5032711;28;20074;-74
2022/01/26 05:43:57;;;;;;;56.03;20.15;;;2.00;99.90;;;;;;5033632;28;20057;-76
2022/01/26 05:46:33;;;;;;;60.38;21.70;;;1.60;99.90;;;;;;5033597;28;20184;-75
2022/01/26 05:48:59;;;;;;;;;;;2.20;99.90;;;;;;5034110;28;20168;-76
2022/01/26 05:51:26;;;;;;;51.90;19.10;;;1.80;99.90;;;;;;5035002;28;19944;-75
2022/01/26 05:53:52;;;;;;;64.68;21.00;;;1.60;99.90;;;;;;5033411;28;20148;-76
2022/01/26 05:56:18;;;;;;;64.38;19.77;;;1.60;99.90;;;;;;5033969;28;20063;-76
2022/01/26 05:58:44;;;;;;;65.85;21.35;;;2.00;99.90;;;;;;5033449;28;20053;-75
2022/01/26 06:01:11;;;;;;;57.85;19.58;;;1.60;99.90;;;;;;5034017;28;20045;-76
2022/01/26 06:03:37;;;;;;;56.35;19.55;;;2.70;99.90;;;;;;5033453;28;20060;-75
2022/01/26 06:06:03;;;;;;;65.40;20.55;;;1.60;99.90;;;;;;5032173;28;20042;-76
2022/01/26 06:08:29;;;;;;;58.97;18.73;;;1.60;99.90;;;;;;5033354;28;20037;-74
2022/01/26 06:10:55;;;;;;;55.45;20.58;;;1.60;99.90;;;;;;5033329;28;20153;-75
2022/01/26 06:13:21;;;;;;;59.92;19.70;;;2.40;99.90;;;;;;5033304;28;20052;-75
2022/01/26 06:15:47;;;;;;;57.50;18.33;;;2.40;99.90;;;;;;5033825;28;20386;-74
2022/01/26 06:18:14;;;;;;;64.15;17.88;;;2.50;99.90;;;;;;5033313;28;20088;-75
2022/01/26 06:20:40;;;;;;;57.35;19.60;;;2.60;99.90;;;;;;5033276;28;20500;-74
2022/01/26 06:23:06;;;;;;;58.55;19.48;;;1.60;99.90;;;;;;5032889;28;20490;-74
2022/01/26 06:25:33;;;;;;;59.35;21.35;;;2.50;99.90;;;;;;5033717;28;20128;-74
2022/01/26 06:28:00;;;;;;;52.20;16.95;;;1.60;99.90;;;;;;5033228;28;20053;-75
2022/01/26 06:30:26;;;;;;;56.65;18.48;;;1.60;99.90;;;;;;5033016;28;20393;-75
2022/01/26 06:32:53;;;;;;;58.08;19.50;;;1.60;99.90;;;;;;5033777;28;20498;-76
2022/01/26 06:35:19;;;;;;;57.70;19.58;;;1.50;99.90;;;;;;5033945;28;20053;-74
2022/01/26 06:37:46;;;;;;;58.97;20.92;;;1.50;99.90;;;;;;5032819;28;20521;-75
2022/01/26 06:40:12;;;;;;;60.83;20.25;;;1.60;99.90;;;;;;5032973;28;20041;-75
2022/01/26 06:43:03;;;;;;;55.95;19.00;;;1.60;99.90;;;;;;5033077;28;20462;-75
2022/01/26 06:45:31;;;;;;;53.92;19.25;;;2.20;99.90;;;;;;5032707;28;20057;-76
2022/01/26 06:48:39;;;;;;;49.63;17.83;;;1.60;99.90;;;;;;5033098;28;20124;-76
2022/01/26 06:51:00;;;;;;;59.85;20.95;;;1.60;99.90;;;;;;5032827;28;20085;-76
2022/01/26 06:53:27;;;;;;;57.85;20.15;;;2.00;99.90;;;;;;5033005;28;20135;-75
2022/01/26 06:55:53;;;;;;;51.17;17.52;;;2.20;99.90;;;;;;5033739;28;20045;-75
2022/01/26 06:58:19;;;;;;;63.25;20.75;;;1.60;99.90;;;;;;5031796;28;20540;-76
2022/01/26 07:00:44;;;;;;;55.95;20.05;;;1.80;99.90;;;;;;5033431;28;20359;-72
2022/01/26 07:03:10;;;;;;;57.42;17.88;;;2.00;99.90;;;;;;5032530;28;20103;-71
2022/01/26 07:05:36;;;;;;;62.28;18.38;;;1.60;99.90;;;;;;5033160;28;20467;-71
2022/01/26 07:08:02;;;;;;;57.63;18.63;;;1.60;99.90;;;;;;5032859;28;20041;-71
2022/01/26 07:10:28;;;;;;;55.15;18.52;;;1.60;99.90;;;;;;5035913;28;20042;-71
2022/01/26 07:12:54;;;;;;;56.00;18.45;;;1.60;99.90;;;;;;5036483;28;20049;-71
2022/01/26 07:23:41;;;;;;;50.10;17.70;;;2.00;99.90;;;;;;5036957;28;20053;-72
2022/01/26 07:26:07;;;;;;;49.50;17.65;;;1.70;99.90;;;;;;5036224;28;20041;-72
2022/01/26 07:28:37;;;;;;;46.38;15.80;;;1.90;99.90;;;;;;5036235;28;20041;-72
2022/01/26 07:31:04;;;;;;;62.00;19.42;;;1.70;99.90;;;;;;5036895;28;20433;-74
2022/01/26 07:33:30;;;;;;;58.03;18.23;;;1.70;99.90;;;;;;5035494;28;20052;-74
2022/01/26 07:35:56;;;;;;;45.72;16.85;;;1.70;99.90;;;;;;5036394;28;20393;-75
2022/01/26 07:38:21;;;;;;;49.35;17.60;;;1.70;99.90;;;;;;5034860;28;20057;-75
2022/01/26 07:40:47;;;;;;;49.55;16.35;;;2.60;99.90;;;;;;5035813;28;20049;-75
2022/01/26 07:43:13;;;;;;;46.65;17.27;;;1.70;99.90;;;;;;5035689;28;20058;-75
2022/01/26 07:45:41;;;;;;;42.50;14.52;;;2.60;99.90;;;;;;5035860;28;20045;-75
2022/01/26 07:48:07;;;;;;;52.20;18.10;;;2.20;99.90;;;;;;5035726;28;20397;-75
2022/01/26 07:50:33;;;;;;;51.85;16.27;;;3.10;99.90;;;;;;5035735;28;20056;-78
2022/01/26 07:53:00;;;;;;;51.60;17.02;;;1.80;99.90;;;;;;5035817;28;20064;-75
2022/01/26 07:55:26;;;;;;;49.30;16.80;;;1.90;99.90;;;;;;5035650;28;20107;-75
2022/01/26 07:57:54;;;;;;;54.63;18.25;;;1.70;99.90;;;;;;5035618;28;20080;-71
2022/01/26 08:00:21;;;;;;;52.88;18.20;;;1.70;99.90;;;;;;5035168;28;20513;-71
2022/01/26 08:02:47;;;;;;;43.35;16.05;;;1.70;99.90;;;;;;5034602;28;20053;-72
2022/01/26 08:05:14;;;;;;;52.80;17.35;;;1.70;99.90;;;;;;5035975;28;20575;-71
2022/01/26 08:07:40;;;;;;;44.63;18.17;;;1.70;99.90;;;;;;5035427;28;20042;-71
2022/01/26 08:10:07;;;;;;;59.28;21.17;;;1.80;99.90;;;;;;5034266;28;20180;-72
2022/01/26 08:12:34;;;;;;;59.58;21.83;;;1.80;99.90;;;;;;5035426;28;20057;-73
2022/01/26 08:14:59;;;;;;;51.42;20.95;;;1.80;99.90;;;;;;5035228;28;20052;-73
2022/01/26 08:17:25;;;;;;;59.90;19.23;;;1.80;99.90;;;;;;5035301;28;20042;-72
2022/01/26 08:19:54;;;;;;;57.63;18.80;;;1.80;99.90;;;;;;5034907;28;20052;-73
2022/01/26 08:22:20;;;;;;;48.53;17.80;;;1.90;99.90;;;;;;5035795;28;20092;-72
2022/01/26 08:24:47;;;;;;;61.67;19.33;;;1.80;99.90;;;;;;5035716;28;20092;-73
2022/01/26 08:27:15;;;;;;;62.95;21.40;;;2.10;99.90;;;;;;5035099;28;20084;-73
2022/01/26 08:29:48;;;;;;;65.85;23.83;;;1.80;99.90;;;;;;5035110;28;20448;-73
2022/01/26 08:32:14;;;;;;;71.45;23.55;;;1.80;99.90;;;;;;5035043;28;20168;-72
2022/01/26 08:34:41;;;;;;;62.47;23.95;;;1.90;99.90;;;;;;5035000;28;20049;-73
2022/01/26 08:37:06;;;;;;;61.15;21.27;;;1.90;99.90;;;;;;5034231;28;20053;-73
2022/01/26 08:39:33;;;;;;;69.63;24.88;;;2.80;99.90;;;;;;5035037;28;20160;-73
2022/01/26 08:41:59;;;;;;;66.63;22.80;;;1.90;99.90;;;;;;5035490;28;20393;-73
2022/01/26 08:44:26;;;;;;;75.22;26.73;;;1.90;99.90;;;;;;5034467;28;20062;-73
2022/01/26 08:46:53;;;;;;;70.35;24.40;;;2.20;99.90;;;;;;5035479;28;20056;-73
2022/01/26 08:49:19;;;;;;;69.53;25.17;;;1.90;99.90;;;;;;5034959;28;20045;-73
2022/01/26 08:51:48;;;;;;;75.82;26.48;;;2.50;99.90;;;;;;5034717;28;20041;-73
2022/01/26 08:54:16;;;;;;;74.00;28.25;;;2.40;99.90;;;;;;5035144;28;20053;-73
2022/01/26 08:56:42;;;;;;;80.82;27.25;;;2.00;99.90;;;;;;5034519;28;20107;-73
2022/01/26 08:59:08;;;;;;;70.50;25.98;;;2.00;99.90;;;;;;5034502;28;20045;-72
2022/01/26 09:01:33;;;;;;;87.88;27.67;;;3.00;99.90;;;;;;5034947;28;20045;-72
2022/01/26 09:03:59;;;;;;;77.43;27.92;;;2.10;99.90;;;;;;5034434;28;20049;-72
2022/01/26 09:06:25;;;;;;;85.20;31.20;;;3.10;99.90;;;;;;5017250;28;20047;-72
2022/01/26 09:08:59;;;;;;;80.88;27.55;;;2.10;99.90;;;;;;5034913;28;20077;-73
2022/01/26 09:11:24;;;;;;;92.97;29.42;;;2.40;99.90;;;;;;5034514;28;20128;-73
2022/01/26 09:13:56;;;;;;;84.72;31.15;;;2.80;99.90;;;;;;5034221;28;20137;-73
2022/01/26 09:16:24;;;;;;;90.03;29.45;;;2.10;99.90;;;;;;5034455;28;20524;-72
2022/01/26 09:18:54;;;;;;;83.63;27.17;;;2.10;99.90;;;;;;5034037;28;20048;-73
2022/01/26 09:21:21;;;;;;;81.78;28.70;;;2.70;99.90;;;;;;5034019;28;20042;-72
2022/01/26 09:23:47;;;;;;;82.13;31.65;;;2.30;99.90;;;;;;5034095;28;20053;-73
2022/01/26 09:26:13;;;;;;;90.70;31.80;;;2.20;99.90;;;;;;5034548;28;20045;-72
2022/01/26 09:28:40;;;;;;;97.40;34.40;;;2.20;99.90;;;;;;5032992;28;20386;-73
2022/01/26 09:31:06;;;;;;;82.40;30.27;;;2.70;99.90;;;;;;5033728;28;20133;-73
2022/01/26 09:33:31;;;;;;;90.35;29.30;;;2.30;99.90;;;;;;5033584;28;20048;-72
2022/01/26 09:35:57;;;;;;;93.85;31.50;;;2.30;99.90;;;;;;5034622;28;20049;-72
2022/01/26 09:38:23;;;;;;;90.78;30.90;;;2.30;99.90;;;;;;5034230;28;20488;-73
2022/01/26 09:40:50;;;;;;;99.63;32.38;;;2.60;99.90;;;;;;5033744;28;20049;-72
2022/01/26 09:43:17;;;;;;;96.75;34.17;;;3.60;99.90;;;;;;5033540;28;20054;-72
2022/01/26 09:45:44;;;;;;;100.85;32.20;;;2.40;99.90;;;;;;5034268;28;20061;-73
2022/01/26 09:48:11;;;;;;;97.57;33.25;;;2.30;99.90;;;;;;5032423;28;20041;-72
2022/01/26 09:50:38;;;;;;;93.68;34.10;;;2.90;99.90;;;;;;5032471;28;20054;-72
2022/01/26 09:53:04;;;;;;;100.57;31.85;;;2.30;99.90;;;;;;5033480;28;20045;-73
2022/01/26 09:55:30;;;;;;;100.70;33.00;;;2.60;99.90;;;;;;5033424;28;20045;-73
2022/01/26 09:57:58;;;;;;;107.28;34.70;;;3.00;99.90;;;;;;5033519;28;20065;-73
2022/01/26 10:00:28;;;;;;;96.22;34.65;;;2.40;99.90;;;;;;5033419;28;20081;-71
2022/01/26 10:03:02;;;;;;;111.32;36.08;;;2.50;99.90;;;;;;5033399;28;20042;-76
2022/01/26 10:05:42;;;;;;;115.40;39.47;;;2.40;99.90;;;;;;5032330;28;20056;-78
2022/01/26 10:19:07;;;;;;;103.47;34.97;;;2.50;99.90;;;;;;5033282;28;20088;-77
2022/01/26 10:21:44;;;;;;;100.63;35.08;;;2.50;99.90;;;;;;5033353;28;20053;-75
2022/01/26 10:24:10;;;;;;;107.78;34.55;;;2.60;99.90;;;;;;5033976;28;20088;-71
2022/01/26 10:26:36;;;;;;;96.45;34.80;;;2.60;99.90;;;;;;5033342;28;20514;-70
2022/01/26 10:29:04;;;;;;;102.75;35.42;;;2.60;99.90;;;;;;5034077;28;20052;-73
2022/01/26 10:31:37;;;;;;;111.80;35.08;;;3.40;99.90;;;;;;5033163;28;20050;-72
2022/01/26 10:34:07;;;;;;;103.47;34.67;;;2.70;99.90;;;;;;5034010;28;20041;-73
2022/01/26 10:36:48;;;;;;;105.70;37.35;;;2.70;99.90;;;;;;5032237;28;20081;-71
2022/01/26 10:39:59;;;;;;;101.07;36.28;;;2.70;99.90;;;;;;5031895;28;20594;-72
2022/01/26 10:42:11;;;;;;;107.97;35.13;;;2.80;99.90;;;;;;5020864;28;20126;-75
2022/01/26 10:44:50;;;;;;;106.55;38.83;;;2.80;99.90;;;;;;5037119;28;20497;-76
2022/01/26 10:47:26;;;;;;;102.85;34.97;;;2.90;99.90;;;;;;5036577;28;20512;-77
2022/01/26 10:50:08;;;;;;;103.75;36.15;;;3.10;99.90;;;;;;5036636;28;20042;-83
2022/01/26 10:52:36;;;;;;;105.85;35.05;;;2.90;99.90;;;;;;5006009;28;20046;-81
2022/01/26 10:55:08;;;;;;;110.22;36.35;;;3.00;99.90;;;;;;5035857;28;20472;-81
2022/01/26 10:57:35;;;;;;;103.88;34.88;;;3.00;99.90;;;;;;5019860;28;20092;-81
2022/01/26 11:00:02;;;;;;;110.55;36.45;;;3.20;99.90;;;;;;5019307;28;20041;-81
2022/01/26 11:02:31;;;;;;;101.22;36.22;;;3.10;99.90;;;;;;5037201;28;20202;-78
2022/01/26 11:04:57;;;;;;;106.55;35.47;;;3.00;99.90;;;;;;5035886;28;20121;-81
2022/01/26 11:07:37;;;;;;;99.40;36.10;;;3.10;99.90;;;;;;5019299;28;20553;-81
2022/01/26 11:10:05;;;;;;;103.63;33.65;;;3.10;99.90;;;;;;5021044;28;20421;-81
2022/01/26 11:12:32;;;;;;;101.53;34.15;;;3.10;99.90;;;;;;5018767;28;20089;-80
2022/01/26 11:15:07;;;;;;;102.93;34.25;;;3.10;99.90;;;;;;5019102;28;20053;-82
2022/01/26 11:17:36;;;;;;;96.45;34.88;;;3.20;99.90;;;;;;5019841;28;20059;-83
2022/01/26 11:20:31;;;;;;;94.57;31.83;;;3.20;99.90;;;;;;5035260;28;20096;-81
2022/01/26 11:23:02;;;;;;;97.43;33.67;;;3.20;99.90;;;;;;5035708;28;20061;-82
2022/01/26 11:25:30;;;;;;;107.60;34.13;;;3.20;99.90;;;;;;5004128;28;20045;-84
2022/01/26 11:27:57;;;;;;;100.63;32.60;;;3.20;99.90;;;;;;5035253;28;20123;-82
2022/01/26 11:30:27;;;;;;;101.00;32.08;;;3.20;99.90;;;;;;5019006;28;20453;-83
2022/01/26 11:32:59;;;;;;;106.15;32.95;;;3.20;99.90;;;;;;5035187;28;20045;-74
2022/01/26 11:35:31;;;;;;;87.95;32.33;;;3.40;99.90;;;;;;5036970;28;20099;-74
2022/01/26 11:38:09;;;;;;;97.32;32.53;;;3.30;99.90;;;;;;5036152;28;20052;-74
2022/01/26 11:46:33;;;;;;;87.72;31.67;;;3.30;99.90;;;;;;5035962;28;20471;-74
2022/01/26 11:49:01;;;;;;;82.50;31.42;;;3.30;99.90;;;;;;5035764;28;20136;-74
2022/01/26 11:51:46;;;;;;;99.25;33.28;;;3.30;99.90;;;;;;5036101;28;20107;-74
2022/01/26 11:54:20;;;;;;;86.65;29.83;;;3.40;99.90;;;;;;5035084;28;20433;-74
2022/01/26 11:57:03;;;;;;;94.90;33.55;;;3.90;99.90;;;;;;5035720;28;20463;-78
2022/01/26 11:59:32;;;;;;;86.15;29.58;;;3.40;99.90;;;;;;5034991;28;20054;-81
2022/01/26 12:02:05;;;;;;;91.10;31.75;;;3.40;99.90;;;;;;5035656;28;20107;-74
2022/01/26 12:04:33;;;;;;;91.25;30.15;;;3.40;99.90;;;;;;5035566;28;20521;-77
2022/01/26 12:07:18;;;;;;;93.38;30.50;;;4.10;99.90;;;;;;5034810;28;20049;-79
2022/01/26 12:09:43;;;;;;;85.75;28.50;;;3.40;99.90;;;;;;5035576;28;20045;-78
2022/01/26 12:12:17;;;;;;;86.75;31.25;;;3.40;99.90;;;;;;5035317;28;20111;-79
2022/01/26 12:14:46;;;;;;;80.15;28.55;;;3.50;99.90;;;;;;5035443;28;20053;-79
2022/01/26 12:17:31;;;;;;;83.22;28.60;;;3.50;99.90;;;;;;5035894;28;20124;-78
2022/01/26 12:42:59;;;;;;;78.75;27.65;;;3.50;99.90;;;;;;5035364;28;20065;-79
2022/01/26 12:45:27;;;;;;;80.97;28.05;;;3.90;99.90;;;;;;5035915;28;20061;-78
2022/01/26 12:47:56;;;;;;;72.65;26.33;;;3.60;99.90;;;;;;5034621;28;20129;-77
2022/01/26 12:50:23;;;;;;;70.43;25.30;;;3.60;99.90;;;;;;5034570;28;20048;-77
2022/01/26 12:52:51;;;;;;;70.53;25.88;;;3.60;99.90;;;;;;5035199;28;20092;-79
2022/01/26 12:55:26;;;;;;;74.57;25.77;;;3.60;99.90;;;;;;5033458;28;20041;-79
2022/01/26 12:57:54;;;;;;;68.25;25.85;;;3.60;99.90;;;;;;5034534;28;20511;-77
2022/01/26 13:00:21;;;;;;;80.95;27.67;;;3.60;99.90;;;;;;5034666;28;20046;-77
2022/01/26 13:02:47;;;;;;;63.88;24.13;;;3.60;99.90;;;;;;5034208;28;20124;-78
2022/01/26 13:05:16;;;;;;;66.47;25.45;;;3.60;99.90;;;;;;5034448;28;20041;-77
2022/01/26 13:07:43;;;;;;;75.57;26.88;;;4.00;99.90;;;;;;5032498;28;20393;-78
2022/01/26 13:10:16;;;;;;;62.58;23.08;;;3.70;99.90;;;;;;5034298;28;20047;-78
2022/01/26 13:12:43;;;;;;;62.53;22.23;;;3.70;99.90;;;;;;5033924;28;20045;-78
2022/01/26 13:15:23;;;;;;;68.05;24.98;;;3.60;99.90;;;;;;5034153;28;20049;-77
2022/01/26 13:18:05;;;;;;;61.40;24.77;;;3.70;99.90;;;;;;5034213;28;20061;-76
2022/01/26 13:23:49;;;;;;;61.40;25.08;;;4.10;99.90;;;;;;5034162;28;20056;-78
2022/01/26 13:28:44;;;;;;;58.75;23.13;;;3.70;99.90;;;;;;5034503;28;20486;-76
2022/01/26 13:49:45;;;;;;;65.68;22.75;;;3.70;99.90;;;;;;5033513;28;20386;-78
2022/01/26 14:00:09;;;;;;;62.85;22.67;;;4.00;99.90;;;;;;5033506;28;20137;-78
2022/01/26 14:02:37;;;;;;;66.78;21.15;;;3.70;99.90;;;;;;5033558;28;20128;-76
2022/01/26 14:05:03;;;;;;;58.00;22.02;;;3.80;99.90;;;;;;5032805;28;20449;-76
2022/01/26 14:07:29;;;;;;;64.85;24.08;;;3.70;99.90;;;;;;5033397;28;20088;-75
2022/01/26 14:09:55;;;;;;;66.25;22.55;;;3.80;99.90;;;;;;5032153;28;20115;-76
2022/01/26 14:12:26;;;;;;;59.63;23.02;;;3.80;99.90;;;;;;5015665;28;20041;-81
2022/01/26 14:14:55;;;;;;;61.85;24.45;;;3.80;99.90;;;;;;5033423;28;20064;-84
2022/01/26 14:18:03;;;;;;;64.88;23.23;;;3.80;99.90;;;;;;5017274;28;20413;-76
2022/01/26 14:20:42;;;;;;;70.57;24.77;;;3.80;99.90;;;;;;5033003;28;20045;-76
2022/01/26 14:25:42;;;;;;;68.40;25.40;;;3.80;99.90;;;;;;5037473;28;20049;-79
2022/01/26 14:28:10;;;;;;;69.68;28.80;;;3.80;99.90;;;;;;5019937;28;20092;-81
2022/01/26 14:54:25;;;;;;;67.53;22.75;;;4.00;99.90;;;;;;5037517;28;20055;-80
2022/01/26 15:00:07;;;;;;;;;;;4.90;99.90;;;;;;5037229;28;20107;-78
2022/01/26 15:35:25;;;;;;;58.65;22.95;;;3.90;99.90;;;;;;5036791;28;20054;-78
2022/01/26 15:43:26;;;;;;;67.13;24.20;;;4.20;99.90;;;;;;5036526;28;20065;-78
2022/01/26 15:48:55;;;;;;;54.63;22.77;;;4.00;99.90;;;;;;4975274;28;20045;-78
2022/01/26 16:04:25;;;;;;;61.30;23.63;;;4.00;99.90;;;;;;5035619;28;20049;-76
2022/01/26 16:05:31;;;;;;;52.88;22.52;;;4.10;99.90;;;;;;5034908;28;20076;-79
2022/01/26 16:08:11;;;;;;;54.80;22.90;;;4.10;99.90;;;;;;5035066;28;20366;-79
2022/01/26 16:21:21;;;;;;;61.22;22.45;;;4.10;99.90;;;;;;5035391;28;20128;-78
2022/01/26 18:51:57;;;;;;;53.88;20.67;;;4.40;99.90;;;;;;5011868;28;20084;-80
2022/01/26 18:54:28;;;;;;;56.15;21.67;;;4.50;99.90;;;;;;5034000;28;20045;-76
2022/01/26 18:57:03;;;;;;;54.85;23.33;;;4.50;99.90;;;;;;5033072;28;20129;-76
2022/01/26 18:59:29;;;;;;;54.28;22.52;;;4.90;99.90;;;;;;5032229;28;20061;-77
2022/01/26 19:01:57;;;;;;;55.15;21.73;;;4.70;99.90;;;;;;5033451;28;20052;-78
2022/01/26 19:04:36;;;;;;;56.90;25.02;;;4.50;99.90;;;;;;5034765;28;20049;-78
2022/01/26 19:07:02;;;;;;;50.40;22.58;;;4.60;99.90;;;;;;5037623;28;20064;-78
2022/01/26 19:09:32;;;;;;;53.20;23.25;;;4.60;99.90;;;;;;5037321;28;20085;-77
2022/01/26 19:12:00;;;;;;;55.50;22.42;;;5.10;99.90;;;;;;5036350;28;20397;-78
2022/01/26 19:14:33;;;;;;;50.63;21.27;;;4.60;99.90;;;;;;5037457;28;20049;-78
2022/01/26 19:17:18;;;;;;;50.97;20.73;;;4.60;99.90;;;;;;5035912;28;20053;-78
2022/01/26 19:28:01;;;;;;;63.28;24.75;;;4.50;99.90;;;;;;5010250;28;20104;-79
2022/01/26 19:33:02;;;;;;;60.35;25.63;;;4.60;99.90;;;;;;5019265;28;20826;-79
2022/01/26 19:43:49;;;;;;;57.67;25.45;;;4.50;99.90;;;;;;5035889;28;20128;-77
2022/01/26 19:52:03;;;;;;;56.17;23.33;;;4.60;99.90;;;;;;5035308;28;20053;-79
2022/01/26 19:54:29;;;;;;;58.92;24.52;;;4.60;99.90;;;;;;5036079;28;20060;-80
2022/01/26 19:56:55;;;;;;;57.72;24.77;;;4.60;99.90;;;;;;5035860;28;20053;-80
2022/01/26 19:59:20;;;;;;;60.13;23.98;;;4.60;99.90;;;;;;5035739;28;20045;-76
2022/01/26 20:01:46;;;;;;;58.08;25.33;;;4.60;99.90;;;;;;5034750;28;20053;-78
2022/01/26 20:04:12;;;;;;;56.08;23.38;;;4.60;99.90;;;;;;5035700;28;20084;-79
2022/01/26 20:06:39;;;;;;;59.20;25.45;;;4.60;99.90;;;;;;5035704;28;20049;-79
2022/01/26 20:09:14;;;;;;;53.30;21.88;;;4.60;99.90;;;;;;5035683;28;20045;-81